Time;durP1;ratioP1;P1;durP2;ratioP2;P2;SDS_P1;SDS_P2;PMS_P1;PMS_P2;Temp;Humidity;BMP_temperature;BMP_pressure;BME280_temperature;BME280_humidity;BME280_pressure;Samples;Min_cycle;Max_cycle;Signal;HPM_P1;HPM_P2
2023/08/03 00:00:59;;;;;;;4.50;2.97;;;;;;;;;;4975366;28;20293;-54
2023/08/03 00:03:26;;;;;;;4.70;2.27;;;;;;;;;;4975285;28;20562;-56
2023/08/03 00:05:52;;;;;;;6.23;2.47;;;;;;;;;;4975307;28;20294;-53
2023/08/03 00:08:18;;;;;;;4.77;2.30;;;;;;;;;;4975222;28;20665;-52
2023/08/03 00:10:44;;;;;;;4.77;2.33;;;;;;;;;;4975196;28;20194;-53
2023/08/03 00:13:10;;;;;;;3.87;2.13;;;;;;;;;;4975172;28;20921;-53
2023/08/03 00:15:36;;;;;;;4.37;2.23;;;;;;;;;;4975270;28;20203;-53
2023/08/03 00:18:02;;;;;;;4.63;2.10;;;;;;;;;;4975319;28;20661;-53
2023/08/03 00:20:30;;;;;;;6.77;2.10;;;;;;;;;;4975168;28;20206;-53
2023/08/03 00:22:56;;;;;;;5.97;2.27;;;;;;;;;;4975091;28;20203;-53
2023/08/03 00:25:22;;;;;;;4.43;1.73;;;;;;;;;;4975101;28;20223;-53
2023/08/03 00:27:48;;;;;;;5.03;2.10;;;;;;;;;;4975203;28;20270;-53
2023/08/03 00:30:14;;;;;;;4.70;2.03;;;;;;;;;;4975043;28;20295;-53
2023/08/03 00:32:40;;;;;;;5.47;2.20;;;;;;;;;;4974873;28;20732;-53
2023/08/03 00:35:07;;;;;;;3.17;2.20;;;;;;;;;;4975074;28;20198;-53
2023/08/03 00:37:37;;;;;;;4.63;1.90;;;;;;;;;;4974865;28;20600;-53
2023/08/03 00:40:03;;;;;;;5.60;2.40;;;;;;;;;;4975061;28;20207;-53
2023/08/03 00:42:29;;;;;;;3.43;1.80;;;;;;;;;;4974721;28;20195;-53
2023/08/03 00:44:55;;;;;;;6.63;2.47;;;;;;;;;;4974725;28;20229;-53
2023/08/03 00:47:21;;;;;;;5.40;2.20;;;;;;;;;;4974832;28;20207;-53
2023/08/03 00:49:47;;;;;;;7.80;2.37;;;;;;;;;;4974782;28;20668;-53
2023/08/03 00:52:13;;;;;;;7.90;2.23;;;;;;;;;;4974605;28;20226;-53
2023/08/03 00:54:40;;;;;;;4.03;2.20;;;;;;;;;;4974333;28;20227;-53
2023/08/03 00:57:06;;;;;;;4.90;2.27;;;;;;;;;;4974614;28;20211;-53
2023/08/03 00:59:33;;;;;;;5.37;2.30;;;;;;;;;;4974557;28;20206;-53
2023/08/03 01:01:59;;;;;;;5.70;2.43;;;;;;;;;;4974401;28;20233;-53
2023/08/03 01:04:25;;;;;;;5.00;2.27;;;;;;;;;;4974204;28;20226;-53
2023/08/03 01:06:52;;;;;;;7.67;2.40;;;;;;;;;;4973863;28;20209;-53
2023/08/03 01:09:18;;;;;;;4.30;1.90;;;;;;;;;;4974318;28;20231;-53
2023/08/03 01:11:47;;;;;;;5.47;2.33;;;;;;;;;;4974300;28;20187;-53
2023/08/03 01:14:13;;;;;;;5.10;2.00;;;;;;;;;;4974410;28;20213;-53
2023/08/03 01:16:39;;;;;;;7.07;2.20;;;;;;;;;;4974133;28;20213;-53
2023/08/03 01:19:05;;;;;;;5.90;3.43;;;;;;;;;;4974190;28;20285;-53
2023/08/03 01:21:31;;;;;;;7.70;2.10;;;;;;;;;;4974301;28;20210;-53
2023/08/03 01:23:59;;;;;;;6.57;2.37;;;;;;;;;;4973847;28;20273;-53
2023/08/03 01:26:25;;;;;;;5.00;2.27;;;;;;;;;;4974069;28;20636;-53
2023/08/03 01:28:51;;;;;;;8.70;2.00;;;;;;;;;;4974042;28;20234;-53
2023/08/03 01:31:18;;;;;;;3.57;1.67;;;;;;;;;;4973910;28;20740;-53
2023/08/03 01:33:44;;;;;;;7.17;1.90;;;;;;;;;;4973779;28;20191;-53
2023/08/03 01:36:10;;;;;;;4.93;2.20;;;;;;;;;;4973906;28;20289;-53
2023/08/03 01:38:36;;;;;;;4.77;1.90;;;;;;;;;;4973864;28;20293;-53
2023/08/03 01:41:05;;;;;;;4.10;2.00;;;;;;;;;;4973617;28;20221;-53
2023/08/03 01:43:31;;;;;;;5.90;1.80;;;;;;;;;;4973733;28;20673;-53
2023/08/03 01:45:57;;;;;;;3.33;1.57;;;;;;;;;;4973493;28;20231;-53
2023/08/03 01:48:23;;;;;;;5.33;1.90;;;;;;;;;;4973675;28;20206;-53
2023/08/03 01:50:49;;;;;;;8.17;1.90;;;;;;;;;;4973608;28;20222;-54
2023/08/03 01:53:17;;;;;;;8.40;1.90;;;;;;;;;;4973283;28;20582;-53
2023/08/03 01:55:45;;;;;;;4.57;2.03;;;;;;;;;;4973307;28;20249;-53
2023/08/03 01:58:12;;;;;;;4.53;1.63;;;;;;;;;;4973402;28;20203;-53
2023/08/03 02:00:38;;;;;;;8.13;1.90;;;;;;;;;;4973442;28;20298;-53
2023/08/03 02:03:04;;;;;;;4.63;1.63;;;;;;;;;;4973368;28;20203;-53
2023/08/03 02:05:30;;;;;;;4.70;1.70;;;;;;;;;;4973228;28;20227;-53
2023/08/03 02:07:56;;;;;;;7.23;2.33;;;;;;;;;;4973139;28;20191;-53
2023/08/03 02:10:23;;;;;;;3.83;1.67;;;;;;;;;;4973212;28;20203;-53
2023/08/03 02:12:49;;;;;;;6.17;2.37;;;;;;;;;;4973299;28;20195;-53
2023/08/03 02:15:17;;;;;;;3.57;1.60;;;;;;;;;;4973153;28;20191;-53
2023/08/03 02:17:44;;;;;;;3.83;1.57;;;;;;;;;;4972755;28;20199;-53
2023/08/03 02:20:11;;;;;;;3.90;1.70;;;;;;;;;;4972670;28;20199;-53
2023/08/03 02:22:37;;;;;;;5.80;1.73;;;;;;;;;;4973073;28;20619;-53
2023/08/03 02:25:03;;;;;;;4.10;1.60;;;;;;;;;;4972901;28;20589;-53
2023/08/03 02:27:29;;;;;;;5.30;1.90;;;;;;;;;;4973021;28;20755;-53
2023/08/03 02:29:55;;;;;;;2.90;1.60;;;;;;;;;;4972819;28;20206;-53
2023/08/03 02:32:24;;;;;;;4.60;1.60;;;;;;;;;;4973046;28;20202;-53
2023/08/03 02:34:50;;;;;;;4.93;2.30;;;;;;;;;;4972938;28;20199;-53
2023/08/03 02:37:16;;;;;;;4.30;1.73;;;;;;;;;;4972755;28;20225;-53
2023/08/03 02:39:42;;;;;;;5.17;2.10;;;;;;;;;;4972628;28;20664;-53
2023/08/03 02:42:08;;;;;;;6.97;1.67;;;;;;;;;;4972679;28;20297;-53
2023/08/03 02:44:34;;;;;;;3.93;1.70;;;;;;;;;;4972810;28;20230;-53
2023/08/03 02:47:00;;;;;;;3.80;1.83;;;;;;;;;;4972630;28;20727;-54
2023/08/03 02:49:27;;;;;;;4.77;1.80;;;;;;;;;;4972698;28;20194;-53
2023/08/03 02:51:53;;;;;;;3.50;1.53;;;;;;;;;;4972505;28;20246;-53
2023/08/03 02:54:19;;;;;;;2.40;1.50;;;;;;;;;;4972562;28;20635;-53
2023/08/03 02:56:45;;;;;;;2.47;1.50;;;;;;;;;;4972529;28;20205;-53
2023/08/03 02:59:18;;;;;;;4.10;1.53;;;;;;;;;;4972588;28;20203;-53
2023/08/03 03:01:44;;;;;;;5.07;1.97;;;;;;;;;;4972577;28;20206;-53
2023/08/03 03:04:10;;;;;;;3.63;1.53;;;;;;;;;;4972370;28;20237;-53
2023/08/03 03:06:38;;;;;;;2.47;1.67;;;;;;;;;;4972385;28;20206;-53
2023/08/03 03:09:04;;;;;;;3.33;1.87;;;;;;;;;;4972258;28;20210;-53
2023/08/03 03:11:30;;;;;;;4.43;1.83;;;;;;;;;;4972502;28;20233;-53
2023/08/03 03:13:56;;;;;;;4.13;1.93;;;;;;;;;;4972505;28;20661;-53
2023/08/03 03:16:25;;;;;;;5.20;2.03;;;;;;;;;;4972550;28;20202;-54
2023/08/03 03:18:51;;;;;;;2.63;1.80;;;;;;;;;;4972300;28;20210;-54
2023/08/03 03:21:17;;;;;;;4.57;2.00;;;;;;;;;;4972434;28;20202;-53
2023/08/03 03:23:44;;;;;;;3.07;1.73;;;;;;;;;;4972111;28;20208;-54
2023/08/03 03:26:10;;;;;;;3.33;1.80;;;;;;;;;;4972376;28;20214;-54
2023/08/03 03:28:36;;;;;;;3.97;1.70;;;;;;;;;;4972314;28;20203;-54
2023/08/03 03:31:02;;;;;;;2.93;1.40;;;;;;;;;;4975057;28;20207;-54
2023/08/03 03:33:28;;;;;;;3.10;1.90;;;;;;;;;;4976196;28;20199;-53
2023/08/03 03:35:54;;;;;;;4.30;1.80;;;;;;;;;;4975937;28;20281;-53
2023/08/03 03:38:20;;;;;;;2.23;1.60;;;;;;;;;;4976168;28;20630;-53
2023/08/03 03:40:48;;;;;;;2.13;1.90;;;;;;;;;;4976010;28;20199;-54
2023/08/03 03:43:14;;;;;;;2.93;1.90;;;;;;;;;;4975958;28;20265;-53
2023/08/03 03:45:40;;;;;;;2.53;1.67;;;;;;;;;;4975763;28;20234;-54
2023/08/03 03:48:06;;;;;;;2.77;1.53;;;;;;;;;;4976183;28;20286;-54
2023/08/03 03:50:32;;;;;;;1.87;1.60;;;;;;;;;;4975866;28;20207;-54
2023/08/03 03:52:58;;;;;;;1.77;1.60;;;;;;;;;;4975559;28;20700;-53
2023/08/03 03:55:24;;;;;;;2.97;1.80;;;;;;;;;;4975643;28;20230;-53
2023/08/03 03:57:52;;;;;;;2.03;1.67;;;;;;;;;;4975650;28;20202;-53
2023/08/03 04:00:18;;;;;;;3.00;1.63;;;;;;;;;;4975652;28;20203;-54
2023/08/03 04:02:44;;;;;;;2.50;1.90;;;;;;;;;;4975645;28;20195;-53
2023/08/03 04:05:10;;;;;;;3.07;1.77;;;;;;;;;;4975500;28;20759;-53
2023/08/03 04:07:35;;;;;;;3.17;2.00;;;;;;;;;;4975241;28;20199;-53
2023/08/03 04:10:01;;;;;;;2.43;2.20;;;;;;;;;;4975179;28;20214;-53
2023/08/03 04:12:28;;;;;;;4.60;2.33;;;;;;;;;;4975423;28;20297;-54
2023/08/03 04:14:55;;;;;;;2.87;2.33;;;;;;;;;;4974990;28;20195;-53
2023/08/03 04:17:21;;;;;;;2.60;2.40;;;;;;;;;;4975415;28;20270;-53
2023/08/03 04:19:47;;;;;;;2.87;2.67;;;;;;;;;;4975390;28;20203;-54
2023/08/03 04:22:13;;;;;;;4.90;3.20;;;;;;;;;;4975172;28;20532;-53
2023/08/03 04:24:39;;;;;;;3.20;2.90;;;;;;;;;;4974937;28;20230;-54
2023/08/03 04:27:05;;;;;;;4.07;3.10;;;;;;;;;;4975310;28;20661;-54
2023/08/03 04:29:31;;;;;;;3.23;3.03;;;;;;;;;;4975180;28;20247;-53
2023/08/03 04:31:59;;;;;;;4.43;3.03;;;;;;;;;;4974852;28;20195;-54
2023/08/03 04:34:25;;;;;;;3.60;2.90;;;;;;;;;;4974371;28;20660;-53
2023/08/03 04:36:51;;;;;;;4.03;3.20;;;;;;;;;;4974883;28;20203;-53
2023/08/03 04:39:17;;;;;;;6.77;3.70;;;;;;;;;;4974866;28;20195;-53
2023/08/03 04:41:43;;;;;;;3.73;3.30;;;;;;;;;;4973865;28;20317;-53
2023/08/03 04:44:09;;;;;;;4.70;3.20;;;;;;;;;;4974699;28;20234;-53
2023/08/03 04:46:35;;;;;;;4.03;3.60;;;;;;;;;;4974749;28;20837;-53
2023/08/03 04:49:03;;;;;;;4.33;3.93;;;;;;;;;;4974739;28;20230;-54
2023/08/03 04:51:29;;;;;;;6.97;3.63;;;;;;;;;;4974845;28;20293;-53
2023/08/03 04:53:55;;;;;;;5.57;4.00;;;;;;;;;;4974375;28;20306;-53
2023/08/03 04:56:21;;;;;;;3.60;3.30;;;;;;;;;;4974512;28;20200;-53
2023/08/03 04:58:47;;;;;;;3.80;3.40;;;;;;;;;;4974602;28;20653;-53
2023/08/03 05:01:13;;;;;;;3.80;3.50;;;;;;;;;;4974411;28;20423;-53
2023/08/03 05:03:39;;;;;;;3.37;3.07;;;;;;;;;;4974496;28;20209;-53
2023/08/03 05:06:06;;;;;;;2.80;2.60;;;;;;;;;;4973539;28;20570;-53
2023/08/03 05:08:32;;;;;;;4.60;2.80;;;;;;;;;;4973276;28;20258;-52
2023/08/03 05:10:58;;;;;;;2.67;2.47;;;;;;;;;;4973480;28;20392;-52
2023/08/03 05:13:24;;;;;;;2.80;2.50;;;;;;;;;;4973563;28;20203;-53
2023/08/03 05:15:50;;;;;;;2.43;2.23;;;;;;;;;;4974120;28;20223;-53
2023/08/03 05:18:16;;;;;;;2.80;2.30;;;;;;;;;;4974407;28;20619;-53
2023/08/03 05:20:42;;;;;;;2.33;2.10;;;;;;;;;;4974250;28;20210;-53
2023/08/03 05:23:11;;;;;;;2.70;2.10;;;;;;;;;;4974070;28;20204;-53
2023/08/03 05:25:37;;;;;;;2.20;1.80;;;;;;;;;;4974222;28;20230;-52
2023/08/03 05:28:04;;;;;;;2.10;1.97;;;;;;;;;;4974047;28;20575;-53
2023/08/03 05:30:30;;;;;;;4.07;2.10;;;;;;;;;;4974017;28;20207;-52
2023/08/03 05:32:56;;;;;;;2.83;2.20;;;;;;;;;;4973855;28;20199;-52
2023/08/03 05:35:22;;;;;;;2.20;1.93;;;;;;;;;;4973756;28;20287;-52
2023/08/03 05:37:48;;;;;;;4.53;1.97;;;;;;;;;;4974014;28;20199;-53
2023/08/03 05:40:15;;;;;;;2.30;2.10;;;;;;;;;;4973791;28;20792;-52
2023/08/03 05:42:41;;;;;;;2.63;2.43;;;;;;;;;;4973713;28;20199;-53
2023/08/03 05:45:11;;;;;;;2.27;2.07;;;;;;;;;;4973565;28;20681;-53
2023/08/03 05:47:38;;;;;;;3.47;2.50;;;;;;;;;;4971559;28;20595;-52
2023/08/03 05:50:04;;;;;;;2.07;1.90;;;;;;;;;;4973336;28;20194;-52
2023/08/03 05:52:30;;;;;;;2.97;2.13;;;;;;;;;;4973110;28;20223;-52
2023/08/03 05:54:56;;;;;;;2.67;2.30;;;;;;;;;;4973101;28;20334;-52
2023/08/03 05:57:24;;;;;;;2.43;2.20;;;;;;;;;;4971242;28;21000;-53
2023/08/03 05:59:50;;;;;;;2.80;2.00;;;;;;;;;;4973558;28;20204;-53
2023/08/03 06:02:24;;;;;;;2.67;1.90;;;;;;;;;;4973077;28;20199;-53
2023/08/03 06:04:50;;;;;;;4.63;1.93;;;;;;;;;;4973230;28;20259;-53
2023/08/03 06:07:17;;;;;;;2.20;2.00;;;;;;;;;;4972956;28;20202;-54
2023/08/03 06:09:43;;;;;;;1.80;1.70;;;;;;;;;;4972878;28;20205;-53
2023/08/03 06:12:14;;;;;;;2.70;2.30;;;;;;;;;;4972603;28;20239;-53
2023/08/03 06:14:41;;;;;;;2.10;1.90;;;;;;;;;;4972876;28;20281;-53
2023/08/03 06:17:09;;;;;;;3.03;2.03;;;;;;;;;;4972856;28;20629;-52
2023/08/03 06:19:35;;;;;;;2.30;2.10;;;;;;;;;;4973053;28;20210;-53
2023/08/03 06:22:02;;;;;;;2.40;2.20;;;;;;;;;;4972791;28;20716;-53
2023/08/03 06:24:28;;;;;;;2.60;2.40;;;;;;;;;;4972717;28;20222;-53
2023/08/03 06:26:54;;;;;;;3.73;2.80;;;;;;;;;;4972674;28;20287;-54
2023/08/03 06:29:20;;;;;;;3.73;2.90;;;;;;;;;;4973078;28;20725;-52
2023/08/03 06:31:47;;;;;;;5.63;3.67;;;;;;;;;;4972932;28;20290;-53
2023/08/03 06:34:13;;;;;;;4.27;3.87;;;;;;;;;;4972831;28;20214;-53
2023/08/03 06:36:41;;;;;;;7.53;3.93;;;;;;;;;;4972802;28;20210;-53
2023/08/03 06:39:07;;;;;;;4.43;3.60;;;;;;;;;;4972651;28;20250;-53
2023/08/03 06:41:33;;;;;;;5.50;3.97;;;;;;;;;;4972984;28;20200;-53
2023/08/03 06:44:00;;;;;;;4.87;3.90;;;;;;;;;;4972582;28;20202;-52
2023/08/03 06:46:26;;;;;;;6.47;4.30;;;;;;;;;;4969255;28;20667;-55
2023/08/03 06:48:54;;;;;;;5.93;4.37;;;;;;;;;;4972714;28;20203;-54
2023/08/03 06:51:20;;;;;;;5.30;4.00;;;;;;;;;;4972339;28;20204;-54
2023/08/03 06:53:49;;;;;;;5.17;4.50;;;;;;;;;;4972076;28;20223;-53
2023/08/03 06:56:15;;;;;;;7.43;4.17;;;;;;;;;;4972407;28;20198;-53
2023/08/03 06:58:41;;;;;;;5.93;4.00;;;;;;;;;;4972203;28;20251;-53
2023/08/03 07:01:07;;;;;;;5.10;3.90;;;;;;;;;;4972266;28;20693;-53
2023/08/03 07:03:33;;;;;;;5.70;3.57;;;;;;;;;;4972576;28;20209;-53
2023/08/03 07:06:02;;;;;;;4.23;3.50;;;;;;;;;;4971783;28;20317;-53
2023/08/03 07:08:28;;;;;;;5.63;3.67;;;;;;;;;;4972269;28;20236;-53
2023/08/03 07:10:54;;;;;;;4.73;3.00;;;;;;;;;;4972104;28;20196;-53
2023/08/03 07:13:20;;;;;;;3.37;2.87;;;;;;;;;;4972282;28;20605;-53
2023/08/03 07:15:46;;;;;;;6.13;3.50;;;;;;;;;;4972247;28;20198;-53
2023/08/03 07:18:12;;;;;;;4.73;2.87;;;;;;;;;;4972176;28;20259;-53
2023/08/03 07:20:38;;;;;;;7.17;2.90;;;;;;;;;;4972236;28;20553;-54
2023/08/03 07:23:07;;;;;;;3.00;2.70;;;;;;;;;;4971722;28;20230;-53
2023/08/03 07:25:33;;;;;;;3.30;2.73;;;;;;;;;;4972132;28;20231;-53
2023/08/03 07:28:00;;;;;;;3.57;2.73;;;;;;;;;;4972201;28;20221;-53
2023/08/03 07:30:26;;;;;;;3.30;2.80;;;;;;;;;;4971948;28;20203;-53
2023/08/03 07:32:52;;;;;;;3.50;2.60;;;;;;;;;;4972187;28;20204;-53
2023/08/03 07:35:18;;;;;;;3.00;2.20;;;;;;;;;;4971470;28;20208;-54
2023/08/03 07:37:44;;;;;;;5.13;2.50;;;;;;;;;;4971744;28;20211;-53
2023/08/03 07:40:11;;;;;;;4.17;2.43;;;;;;;;;;4972055;28;20200;-53
2023/08/03 07:42:38;;;;;;;4.30;2.60;;;;;;;;;;4972227;28;20206;-53
2023/08/03 07:45:04;;;;;;;4.13;2.67;;;;;;;;;;4971887;28;20222;-53
2023/08/03 07:47:31;;;;;;;3.37;2.40;;;;;;;;;;4971538;28;20203;-53
2023/08/03 07:49:57;;;;;;;3.57;2.40;;;;;;;;;;4954531;28;20272;-53
2023/08/03 07:52:23;;;;;;;3.40;2.23;;;;;;;;;;4952306;29;20236;-53
2023/08/03 07:54:49;;;;;;;4.90;2.70;;;;;;;;;;4952733;29;20240;-53
2023/08/03 07:57:17;;;;;;;2.57;2.23;;;;;;;;;;4952531;29;20239;-53
2023/08/03 07:59:43;;;;;;;3.87;2.47;;;;;;;;;;4950520;28;20871;-54
2023/08/03 08:02:09;;;;;;;3.13;2.77;;;;;;;;;;4950543;28;20662;-54
2023/08/03 08:04:35;;;;;;;3.40;2.30;;;;;;;;;;4952511;29;20223;-56
2023/08/03 08:07:01;;;;;;;2.57;2.30;;;;;;;;;;4952260;28;20606;-53
2023/08/03 08:09:27;;;;;;;3.97;2.57;;;;;;;;;;4952574;29;20208;-54
2023/08/03 08:11:53;;;;;;;3.70;2.37;;;;;;;;;;4952786;29;20204;-54
2023/08/03 08:14:20;;;;;;;5.27;3.00;;;;;;;;;;4952659;29;20200;-54
2023/08/03 08:16:46;;;;;;;3.77;3.00;;;;;;;;;;4953422;28;20214;-54
2023/08/03 08:19:12;;;;;;;3.00;2.60;;;;;;;;;;4955815;28;20207;-57
2023/08/03 08:21:38;;;;;;;3.20;2.50;;;;;;;;;;4956032;28;20219;-55
2023/08/03 08:24:05;;;;;;;2.87;2.50;;;;;;;;;;4955991;28;20209;-54
2023/08/03 08:26:31;;;;;;;2.80;2.60;;;;;;;;;;4955707;28;20614;-55
2023/08/03 08:28:58;;;;;;;3.27;2.70;;;;;;;;;;4955792;28;20208;-55
2023/08/03 08:31:26;;;;;;;2.73;2.53;;;;;;;;;;4955813;28;20331;-55
2023/08/03 08:33:52;;;;;;;2.77;2.33;;;;;;;;;;4955669;28;20663;-55
2023/08/03 08:36:18;;;;;;;2.50;2.30;;;;;;;;;;4955659;28;20208;-55
2023/08/03 08:38:44;;;;;;;3.20;2.90;;;;;;;;;;4955733;28;20294;-55
2023/08/03 08:41:10;;;;;;;3.23;2.50;;;;;;;;;;4955579;28;20204;-55
2023/08/03 08:43:36;;;;;;;4.17;2.27;;;;;;;;;;4955710;28;20199;-58
2023/08/03 08:46:02;;;;;;;2.50;2.23;;;;;;;;;;4955489;29;20821;-58
2023/08/03 08:48:29;;;;;;;2.00;1.90;;;;;;;;;;4955238;29;20200;-57
2023/08/03 08:50:59;;;;;;;2.00;1.80;;;;;;;;;;4955426;29;20203;-54
2023/08/03 08:53:25;;;;;;;2.20;1.90;;;;;;;;;;4955208;29;20219;-54
2023/08/03 08:55:51;;;;;;;1.70;1.60;;;;;;;;;;4955468;29;20240;-55
2023/08/03 08:58:18;;;;;;;3.33;1.60;;;;;;;;;;4955448;29;20236;-59
2023/08/03 09:00:45;;;;;;;2.40;1.30;;;;;;;;;;4955371;28;20210;-58
2023/08/03 09:03:11;;;;;;;2.63;1.30;;;;;;;;;;4955122;29;20205;-55
2023/08/03 09:05:39;;;;;;;1.67;1.17;;;;;;;;;;4955361;29;20309;-56
2023/08/03 09:08:05;;;;;;;1.43;1.20;;;;;;;;;;4955103;28;20225;-56
2023/08/03 09:10:32;;;;;;;2.20;1.30;;;;;;;;;;4955099;29;20242;-57
2023/08/03 09:12:59;;;;;;;3.27;2.90;;;;;;;;;;4952730;28;20209;-56
2023/08/03 09:15:37;;;;;;;1.40;1.27;;;;;;;;;;4954656;29;20224;-54
2023/08/03 09:18:04;;;;;;;1.30;1.20;;;;;;;;;;4953522;28;20205;-55
2023/08/03 09:20:31;;;;;;;1.33;1.20;;;;;;;;;;4955278;28;20208;-53
2023/08/03 09:22:59;;;;;;;0.90;0.90;;;;;;;;;;4955292;28;20216;-54
2023/08/03 09:25:25;;;;;;;2.03;1.10;;;;;;;;;;4950905;28;20313;-54
2023/08/03 09:27:52;;;;;;;1.33;0.90;;;;;;;;;;4954733;28;20638;-54
2023/08/03 09:30:18;;;;;;;1.17;1.10;;;;;;;;;;4955036;28;20201;-54
2023/08/03 09:32:45;;;;;;;1.00;0.90;;;;;;;;;;4955160;29;20202;-54
2023/08/03 09:35:16;;;;;;;1.10;1.00;;;;;;;;;;4953166;29;20197;-54
2023/08/03 09:37:42;;;;;;;1.20;1.10;;;;;;;;;;4955032;29;20307;-55
2023/08/03 09:40:09;;;;;;;4.20;1.00;;;;;;;;;;4954853;28;20203;-55
2023/08/03 09:42:36;;;;;;;0.63;0.63;;;;;;;;;;4954728;29;20204;-55
2023/08/03 09:45:03;;;;;;;0.83;0.83;;;;;;;;;;4954523;29;20232;-54
2023/08/03 09:47:32;;;;;;;1.03;0.90;;;;;;;;;;4954463;29;20247;-53
2023/08/03 09:49:58;;;;;;;1.47;1.33;;;;;;;;;;4954887;28;20194;-53
2023/08/03 09:52:26;;;;;;;0.83;0.83;;;;;;;;;;4954397;29;20221;-53
2023/08/03 09:54:57;;;;;;;1.00;1.00;;;;;;;;;;4954554;28;20337;-52
2023/08/03 09:57:28;;;;;;;1.13;1.03;;;;;;;;;;4981008;28;20288;-51
2023/08/03 10:00:00;;;;;;;0.97;0.80;;;;;;;;;;4973475;28;20201;-52
2023/08/03 10:02:29;;;;;;;1.03;0.80;;;;;;;;;;4973197;28;20246;-51
2023/08/03 10:04:57;;;;;;;0.80;0.80;;;;;;;;;;4973133;28;20222;-53
2023/08/03 10:07:26;;;;;;;2.27;0.70;;;;;;;;;;4972700;28;20202;-52
2023/08/03 10:09:55;;;;;;;0.80;0.70;;;;;;;;;;4973290;28;20209;-52
2023/08/03 10:12:24;;;;;;;1.90;1.50;;;;;;;;;;4973017;28;20619;-54
2023/08/03 10:14:53;;;;;;;0.60;0.60;;;;;;;;;;4973311;28;20206;-51
2023/08/03 10:17:19;;;;;;;0.70;0.70;;;;;;;;;;4972878;28;20695;-52
2023/08/03 10:19:46;;;;;;;0.60;0.60;;;;;;;;;;4972835;28;20203;-52
2023/08/03 10:22:12;;;;;;;1.40;0.73;;;;;;;;;;4972680;28;20206;-52
2023/08/03 10:24:38;;;;;;;2.47;0.60;;;;;;;;;;4972917;28;20234;-52
2023/08/03 10:27:20;;;;;;;1.53;0.93;;;;;;;;;;4972783;28;20253;-52
2023/08/03 10:29:53;;;;;;;0.73;0.73;;;;;;;;;;4972760;28;20204;-53
2023/08/03 10:32:21;;;;;;;1.23;0.60;;;;;;;;;;4972354;28;20206;-52
2023/08/03 10:34:52;;;;;;;0.73;0.53;;;;;;;;;;4972841;28;20198;-52
2023/08/03 10:37:18;;;;;;;3.40;2.70;;;;;;;;;;4972338;28;20203;-52
2023/08/03 10:39:49;;;;;;;2.27;0.83;;;;;;;;;;4971831;28;20201;-52
2023/08/03 10:42:18;;;;;;;0.60;0.53;;;;;;;;;;4972480;28;20199;-52
2023/08/03 10:44:44;;;;;;;2.90;0.40;;;;;;;;;;4972002;28;20720;-52
2023/08/03 10:47:21;;;;;;;0.50;0.50;;;;;;;;;;4972414;28;20262;-52
2023/08/03 10:49:52;;;;;;;1.37;0.67;;;;;;;;;;4972243;28;20293;-52
2023/08/03 10:52:19;;;;;;;0.63;0.63;;;;;;;;;;4953197;28;20307;-53
2023/08/03 10:54:45;;;;;;;0.67;0.60;;;;;;;;;;4952875;29;20690;-52
2023/08/03 10:57:12;;;;;;;0.37;0.37;;;;;;;;;;4952614;29;20200;-52
2023/08/03 10:59:38;;;;;;;0.50;0.50;;;;;;;;;;4951231;29;20250;-53
2023/08/03 11:02:11;;;;;;;0.97;0.77;;;;;;;;;;4953094;29;20592;-54
2023/08/03 11:04:39;;;;;;;1.47;0.53;;;;;;;;;;4952952;29;20278;-53
2023/08/03 11:07:06;;;;;;;1.13;0.53;;;;;;;;;;4952954;28;20262;-53
2023/08/03 11:09:32;;;;;;;1.13;0.60;;;;;;;;;;4952614;28;20188;-53
2023/08/03 11:11:58;;;;;;;0.70;0.70;;;;;;;;;;4952938;28;20211;-53
2023/08/03 11:14:24;;;;;;;0.60;0.60;;;;;;;;;;4952751;29;20203;-53
2023/08/03 11:16:50;;;;;;;1.17;0.70;;;;;;;;;;4969848;28;20203;-53
2023/08/03 11:19:17;;;;;;;0.97;0.50;;;;;;;;;;4971962;28;20221;-53
2023/08/03 11:21:44;;;;;;;1.80;0.70;;;;;;;;;;4971961;28;20784;-53
2023/08/03 11:24:10;;;;;;;2.23;0.80;;;;;;;;;;4972112;28;20204;-54
2023/08/03 11:26:36;;;;;;;0.77;0.70;;;;;;;;;;4971759;28;20285;-53
2023/08/03 11:29:03;;;;;;;0.70;0.70;;;;;;;;;;4972224;28;20230;-53
2023/08/03 11:31:29;;;;;;;1.30;0.20;;;;;;;;;;4971857;28;20206;-53
2023/08/03 11:33:55;;;;;;;0.27;0.20;;;;;;;;;;4971774;28;20196;-53
2023/08/03 11:36:22;;;;;;;0.70;0.30;;;;;;;;;;4971783;28;20541;-54
2023/08/03 11:38:50;;;;;;;2.37;2.10;;;;;;;;;;4972153;28;20203;-54
2023/08/03 11:41:17;;;;;;;0.50;0.50;;;;;;;;;;4971655;28;20207;-53
2023/08/03 11:43:44;;;;;;;0.87;0.40;;;;;;;;;;4955096;28;20260;-53
2023/08/03 11:46:10;;;;;;;0.30;0.30;;;;;;;;;;4971649;28;20254;-54
2023/08/03 11:48:36;;;;;;;0.40;0.40;;;;;;;;;;4971807;28;20274;-53
2023/08/03 11:51:03;;;;;;;0.70;0.60;;;;;;;;;;4972973;28;20223;-53
2023/08/03 11:53:30;;;;;;;0.50;0.50;;;;;;;;;;4975120;28;20238;-53
2023/08/03 11:55:58;;;;;;;0.63;0.50;;;;;;;;;;4975381;28;20320;-53
2023/08/03 11:58:24;;;;;;;0.83;0.67;;;;;;;;;;4975124;28;20209;-53
2023/08/03 12:00:50;;;;;;;0.60;0.60;;;;;;;;;;4973820;28;20247;-52
2023/08/03 12:03:19;;;;;;;0.80;0.50;;;;;;;;;;4973744;28;20563;-53
2023/08/03 12:05:48;;;;;;;1.20;0.70;;;;;;;;;;4975726;28;20249;-53
2023/08/03 12:08:17;;;;;;;1.30;0.80;;;;;;;;;;4975561;28;20207;-52
2023/08/03 12:10:55;;;;;;;1.63;0.40;;;;;;;;;;4975485;28;20226;-53
2023/08/03 12:13:22;;;;;;;2.77;0.43;;;;;;;;;;4975338;28;20203;-53
2023/08/03 12:15:48;;;;;;;0.70;0.50;;;;;;;;;;4975497;28;20705;-53
2023/08/03 12:18:14;;;;;;;0.50;0.50;;;;;;;;;;4975348;28;20234;-53
2023/08/03 12:20:40;;;;;;;1.67;0.60;;;;;;;;;;4975235;28;20191;-53
2023/08/03 12:23:06;;;;;;;0.70;0.70;;;;;;;;;;4975251;28;20673;-53
2023/08/03 12:25:32;;;;;;;0.50;0.50;;;;;;;;;;4975329;28;20222;-53
2023/08/03 12:27:58;;;;;;;1.30;0.80;;;;;;;;;;4975426;28;20599;-53
2023/08/03 12:30:26;;;;;;;1.93;0.90;;;;;;;;;;4975302;28;20661;-53
2023/08/03 12:32:52;;;;;;;2.80;0.80;;;;;;;;;;4975464;28;20608;-53
2023/08/03 12:35:18;;;;;;;2.20;0.93;;;;;;;;;;4975033;28;20660;-53
2023/08/03 12:37:45;;;;;;;2.10;0.80;;;;;;;;;;4975352;28;20234;-53
2023/08/03 12:40:11;;;;;;;2.50;1.40;;;;;;;;;;4975546;28;20208;-53
2023/08/03 12:42:37;;;;;;;1.67;1.00;;;;;;;;;;4975071;28;20218;-53
2023/08/03 12:45:03;;;;;;;1.10;0.80;;;;;;;;;;4975300;28;20226;-53
2023/08/03 12:47:31;;;;;;;1.10;1.00;;;;;;;;;;4974861;28;20309;-53
2023/08/03 12:49:58;;;;;;;1.80;1.00;;;;;;;;;;4973264;28;20211;-55
2023/08/03 12:52:25;;;;;;;1.07;0.97;;;;;;;;;;4971426;28;20226;-55
2023/08/03 12:54:51;;;;;;;1.57;0.80;;;;;;;;;;4971256;28;20246;-54
2023/08/03 12:57:17;;;;;;;2.50;1.00;;;;;;;;;;4994519;28;20261;-54
2023/08/03 12:59:43;;;;;;;2.33;1.20;;;;;;;;;;4994252;28;20790;-54
2023/08/03 13:02:09;;;;;;;3.80;1.00;;;;;;;;;;4993396;28;20199;-54
2023/08/03 13:04:36;;;;;;;0.83;0.70;;;;;;;;;;4993770;28;20214;-55
2023/08/03 13:07:02;;;;;;;2.17;1.10;;;;;;;;;;4994414;28;20200;-55
2023/08/03 13:09:28;;;;;;;1.57;1.07;;;;;;;;;;4994282;28;20202;-55
2023/08/03 13:11:57;;;;;;;3.40;1.33;;;;;;;;;;4994147;28;20664;-55
2023/08/03 13:14:23;;;;;;;1.63;1.40;;;;;;;;;;4993565;28;20543;-54
2023/08/03 13:16:49;;;;;;;1.10;0.97;;;;;;;;;;4994082;28;20249;-54
2023/08/03 13:19:15;;;;;;;3.37;1.00;;;;;;;;;;4993758;28;20202;-54
2023/08/03 13:21:43;;;;;;;1.77;1.10;;;;;;;;;;4989991;28;20252;-55
2023/08/03 13:24:09;;;;;;;1.17;1.03;;;;;;;;;;4993627;28;20284;-53
2023/08/03 13:26:35;;;;;;;1.37;1.10;;;;;;;;;;4993467;28;20230;-52
2023/08/03 13:29:01;;;;;;;1.23;1.07;;;;;;;;;;4993549;28;20552;-53
2023/08/03 13:31:27;;;;;;;1.80;1.10;;;;;;;;;;4993256;28;20256;-54
2023/08/03 13:33:53;;;;;;;1.10;1.00;;;;;;;;;;4993388;28;20206;-53
2023/08/03 13:36:19;;;;;;;1.17;0.90;;;;;;;;;;4992956;28;20233;-53
2023/08/03 13:38:46;;;;;;;1.73;1.00;;;;;;;;;;4993125;28;20556;-54
2023/08/03 13:41:13;;;;;;;1.20;1.10;;;;;;;;;;4993303;28;20201;-54
2023/08/03 13:43:41;;;;;;;3.23;1.60;;;;;;;;;;4993222;28;20220;-55
2023/08/03 13:46:07;;;;;;;1.73;1.30;;;;;;;;;;4993197;28;20237;-54
2023/08/03 13:48:33;;;;;;;1.37;1.27;;;;;;;;;;4993107;28;20212;-54
2023/08/03 13:50:59;;;;;;;3.77;1.70;;;;;;;;;;4992923;28;20693;-54
2023/08/03 13:53:25;;;;;;;3.80;2.00;;;;;;;;;;4992880;28;20240;-54
2023/08/03 13:55:53;;;;;;;2.43;1.53;;;;;;;;;;4992879;28;20715;-54
2023/08/03 13:58:19;;;;;;;3.00;1.53;;;;;;;;;;4993087;28;20616;-54
2023/08/03 14:00:45;;;;;;;2.27;1.50;;;;;;;;;;4992757;28;20232;-54
2023/08/03 14:03:11;;;;;;;1.50;1.40;;;;;;;;;;4992869;28;20198;-54
2023/08/03 14:05:37;;;;;;;1.60;1.50;;;;;;;;;;4992515;28;20260;-53
2023/08/03 14:08:03;;;;;;;3.03;1.70;;;;;;;;;;4992843;28;20238;-54
2023/08/03 14:10:29;;;;;;;3.37;1.90;;;;;;;;;;4992600;28;20234;-54
2023/08/03 14:12:56;;;;;;;2.97;1.90;;;;;;;;;;4992629;28;20269;-54
2023/08/03 14:15:22;;;;;;;1.97;1.77;;;;;;;;;;4992589;28;20198;-54
2023/08/03 14:17:48;;;;;;;4.37;2.03;;;;;;;;;;4992655;28;20194;-54
2023/08/03 14:20:14;;;;;;;3.47;1.80;;;;;;;;;;4992671;28;20206;-53
2023/08/03 14:22:40;;;;;;;3.67;2.00;;;;;;;;;;4992332;28;20194;-53
2023/08/03 14:25:07;;;;;;;4.47;2.07;;;;;;;;;;4992472;28;20274;-54
2023/08/03 14:27:33;;;;;;;4.50;1.70;;;;;;;;;;4992499;28;20209;-54
2023/08/03 14:30:01;;;;;;;4.07;1.80;;;;;;;;;;4992341;28;20198;-54
2023/08/03 14:32:27;;;;;;;3.37;2.30;;;;;;;;;;4992382;28;20297;-54
2023/08/03 14:34:53;;;;;;;3.47;1.83;;;;;;;;;;4992446;28;20209;-54
2023/08/03 14:37:19;;;;;;;2.00;1.87;;;;;;;;;;4992400;28;20198;-54
2023/08/03 14:39:45;;;;;;;2.40;2.20;;;;;;;;;;4992265;28;20194;-53